Airfield :
LOGIN :

Register | Disclaimer

   EN    FR    IT 

 










Legend :    VFR   Marginal VFR   IFR   Intensive IFR   Very Intensive IFR
Visi :
Ceiling :
>= 8 km
>= 3000ft
5 to 8 km
1000 to 3000 ft
1500m to 5 km
500 to 1000 ft
800 to 1500m
200 to 500 ft
< 800m
< 200 ft
Symbols :   Thunderstorms  Fog  Heavy snow  Heavy precipitations  Wind > 20 kt
SIGMETs :     Misc.  Thunderstorms  Icing  Turbulence  Mountain Waves  Volcanic Ashes







- Airport Elevation : 646 ft
- IATA code : VNO


EYVI - Vilnius int.

CURRENT METAR :
  • 162220Z VRB01KT 9999 BKN015CB 17/15 Q1015 NOSIG

EXPIRED METARs :
  • 162150Z 00000KT 9999 SCT018CB BKN067 17/15 Q1015 NOSIG
  • 162120Z 27004KT 9999 BKN032CB BKN068 17/14 Q1015 NOSIG
  • 162050Z 18004KT 9999 SCT035CB BKN100 15/14 Q1015 NOSIG
  • 162020Z 16005KT CAVOK 16/14 Q1015 NOSIG
  • 161950Z 15004KT CAVOK 17/14 Q1015 NOSIG

TAF COR TAF EYVI
Valid from the 16 at 18:00 until the 17 at 18:00 UTC


162004Z 1618/1718 VRB05KT 9000 SCT012 BKN030
TEMPO 1618/1623 -SHRA BKN030CB
BECMG 1623/1624 27008KT BKN015
TEMPO 1624/1705 1500 BR BKN003
TEMPO 1705/1709 4000 DZ BR BKN005
No reported NOTAMs for that airfield.



MET'MAP, your aeronautical weather chart ! - Copyright ORBIFLY December 2007 - Disclaimer

ORBIFLY MET'MAP TEAM :

Programming & Development : Alexandra Zaïnal
Concept & Development : Baudouin d'Aumeries
Co-Development & Prog : Marc-Olivier Méhu
Technical & hardware support : Manuel Goepfert

Contact : metmap@orbifly.com




SOURCES & CREDITS :

   NOAA